createdAt,value
2019-05-17T00:01:46.919Z,100025.16
2019-05-17T00:06:51.422Z,100018.92
2019-05-17T00:11:56.852Z,100019.30
2019-05-17T00:17:01.388Z,100009.30
2019-05-17T00:22:07.434Z,99998.06
2019-05-17T00:27:12.053Z,100003.02
2019-05-17T00:32:17.156Z,99998.13
2019-05-17T00:37:21.610Z,99992.78
2019-05-17T00:42:26.424Z,99987.51
2019-05-17T00:47:31.043Z,99985.84
2019-05-17T00:52:36.899Z,99977.36
2019-05-17T00:57:41.556Z,99974.66
2019-05-17T01:02:46.893Z,99973.77
2019-05-17T01:07:51.451Z,99962.70
2019-05-17T01:12:57.531Z,99964.05
2019-05-17T01:18:02.183Z,99952.55
2019-05-17T01:23:07.646Z,99940.63
2019-05-17T01:28:13.271Z,99945.46
2019-05-17T01:33:17.711Z,99936.86
2019-05-17T01:38:22.115Z,99937.77
2019-05-17T01:43:27.324Z,99934.23
2019-05-17T01:48:32.809Z,99929.30
2019-05-17T01:53:37.177Z,99926.17
2019-05-17T01:58:41.584Z,99919.09
2019-05-17T02:03:46.917Z,99928.51
2019-05-17T02:08:51.768Z,99927.73
2019-05-17T02:13:56.278Z,99923.96
2019-05-17T02:19:00.604Z,99917.53
2019-05-17T02:24:07.762Z,99912.42
2019-05-17T02:29:12.070Z,99917.20
2019-05-17T02:34:16.522Z,99910.44
2019-05-17T02:39:23.269Z,99904.77
2019-05-17T02:44:26.908Z,99905.56
2019-05-17T02:49:33.111Z,99912.09
2019-05-17T02:54:37.357Z,99912.95
2019-05-17T02:59:43.312Z,99909.13
2019-05-17T03:04:47.861Z,99894.08
2019-05-17T03:09:53.407Z,99897.25
2019-05-17T03:14:58.320Z,99902.70
2019-05-17T03:20:04.247Z,99909.64
2019-05-17T03:25:08.921Z,99898.15
2019-05-17T03:30:18.867Z,99897.64
2019-05-17T03:35:25.678Z,99902.70
2019-05-17T03:40:58.453Z,99909.08
2019-05-17T03:45:33.947Z,99923.16
2019-05-17T03:50:38.357Z,99911.72
2019-05-17T03:55:43.113Z,99909.69
2019-05-17T04:00:47.553Z,99909.50
2019-05-17T04:05:52.898Z,99914.61
2019-05-17T04:10:57.615Z,99909.00
2019-05-17T04:16:05.912Z,99901.41
2019-05-17T04:21:08.088Z,99898.98
2019-05-17T04:26:13.526Z,99873.36
2019-05-17T04:31:18.201Z,99872.59
2019-05-17T04:36:22.783Z,99885.06
2019-05-17T04:41:44.688Z,99878.52
2019-05-17T04:46:33.243Z,99877.69
2019-05-17T04:51:37.683Z,99888.94
2019-05-17T04:56:42.706Z,99902.50
2019-05-17T05:01:47.855Z,99892.86
2019-05-17T05:06:52.837Z,99893.38
2019-05-17T05:12:02.617Z,99888.14
2019-05-17T05:17:05.218Z,99886.66
2019-05-17T05:22:09.552Z,99888.82
2019-05-17T05:27:13.957Z,99882.95
2019-05-17T05:32:18.309Z,99881.94
2019-05-17T05:37:23.260Z,99890.67
2019-05-17T05:42:27.817Z,99881.48
2019-05-17T05:47:32.417Z,99886.73
2019-05-17T05:52:36.851Z,99885.26
2019-05-17T05:57:41.965Z,99887.80
2019-05-17T06:02:46.877Z,99882.54
2019-05-17T06:07:52.251Z,99886.95
2019-05-17T06:12:56.881Z,99876.33
2019-05-17T06:18:03.034Z,99881.16
2019-05-17T06:23:07.357Z,99879.65
2019-05-17T06:28:11.808Z,99878.31
2019-05-17T06:33:29.918Z,99879.59
2019-05-17T06:38:22.583Z,99886.84
2019-05-17T06:43:26.988Z,99879.84
2019-05-17T06:48:32.087Z,99882.45
2019-05-17T06:53:37.488Z,99884.17
2019-05-17T06:58:41.873Z,99871.67
2019-05-17T07:03:46.267Z,99867.48
2019-05-17T07:08:50.678Z,99868.77
2019-05-17T07:13:55.051Z,99851.15
2019-05-17T07:18:59.802Z,99847.72
2019-05-17T07:24:04.364Z,99844.23
2019-05-17T07:29:10.048Z,99839.53
2019-05-17T07:34:15.627Z,99832.02
2019-05-17T07:39:20.480Z,99828.97
2019-05-17T07:44:24.942Z,99823.91
2019-05-17T07:49:29.475Z,99827.96
2019-05-17T07:54:34.292Z,99836.06
2019-05-17T07:59:39.710Z,99824.33
2019-05-17T08:04:44.212Z,99826.86
2019-05-17T08:09:50.626Z,99813.51
2019-05-17T08:14:56.301Z,99806.84
2019-05-17T08:20:00.972Z,99797.92
2019-05-17T08:25:13.057Z,99792.98
2019-05-17T08:30:23.821Z,99783.27
2019-05-17T08:35:37.264Z,99781.86
2019-05-17T08:40:43.706Z,99774.03
2019-05-17T08:45:59.299Z,99766.05
2019-05-17T08:51:10.568Z,99750.22
2019-05-17T08:56:22.879Z,99750.22
2019-05-17T09:01:41.731Z,99742.06
2019-05-17T09:06:50.292Z,99739.55
2019-05-17T09:11:54.216Z,99736.09
2019-05-17T09:17:00.368Z,99739.66
2019-05-17T09:22:04.858Z,99734.09
2019-05-17T09:27:10.159Z,99718.95
2019-05-17T09:32:15.536Z,99721.77
2019-05-17T09:37:22.485Z,99709.31
2019-05-17T09:42:25.960Z,99712.94
2019-05-17T09:47:30.313Z,99710.77
2019-05-17T09:52:34.626Z,99711.11
2019-05-17T09:57:40.870Z,99710.14
2019-05-17T10:02:45.564Z,99706.91
2019-05-17T10:07:50.695Z,99703.53
2019-05-17T10:12:55.284Z,99698.48
2019-05-17T10:18:00.579Z,99699.36
2019-05-17T10:23:05.217Z,99690.98
2019-05-17T10:28:10.178Z,99692.00
2019-05-17T10:33:14.702Z,99691.55
2019-05-17T10:38:19.505Z,99692.88
2019-05-17T10:43:24.091Z,99689.73
2019-05-17T10:48:30.126Z,99690.73
2019-05-17T10:53:34.677Z,99693.08
2019-05-17T10:58:39.948Z,99687.18
2019-05-17T11:03:44.615Z,99681.86
2019-05-17T11:08:50.167Z,99687.62
2019-05-17T11:13:54.636Z,99691.42
2019-05-17T11:18:59.052Z,99686.40
2019-05-17T11:24:03.472Z,99688.83
2019-05-17T11:29:07.823Z,99694.41
2019-05-17T11:34:12.234Z,99690.69
2019-05-17T11:39:16.552Z,99693.82
2019-05-17T11:44:20.923Z,99681.45
2019-05-17T11:49:25.261Z,99681.34
2019-05-17T11:54:29.683Z,99680.27
2019-05-17T11:59:34.042Z,99667.27
2019-05-17T12:04:38.464Z,99667.33
2019-05-17T12:09:42.811Z,99659.34
2019-05-17T12:14:47.162Z,99653.16
2019-05-17T12:19:51.577Z,99657.91
2019-05-17T12:24:56.111Z,99652.50
2019-05-17T12:30:00.505Z,99644.77
2019-05-17T12:35:05.449Z,99647.48
2019-05-17T12:40:10.564Z,99646.09
2019-05-17T12:45:14.999Z,99643.64
2019-05-17T12:50:19.964Z,99634.36
2019-05-17T12:55:24.304Z,99626.31
2019-05-17T13:00:28.710Z,99623.25
2019-05-17T13:05:33.075Z,99629.44
2019-05-17T13:10:37.418Z,99625.80
2019-05-17T13:15:41.836Z,99625.80
2019-05-17T13:20:46.270Z,99631.08
2019-05-17T13:25:50.657Z,99626.81
2019-05-17T13:30:55.009Z,99618.97
2019-05-17T13:35:59.402Z,99615.00
2019-05-17T13:41:03.791Z,99611.94
2019-05-17T13:46:08.217Z,99607.16
2019-05-17T13:51:12.549Z,99601.48
2019-05-17T13:56:17.004Z,99614.42
2019-05-17T14:01:21.358Z,99589.02
2019-05-17T14:06:25.724Z,99595.07
2019-05-17T14:11:30.077Z,99586.05
2019-05-17T14:16:34.889Z,99584.44
2019-05-17T14:21:39.433Z,99584.38
2019-05-17T14:26:43.782Z,99581.52
2019-05-17T14:31:48.201Z,99577.78
2019-05-17T14:36:52.558Z,99573.32
2019-05-17T14:41:56.936Z,99574.57
2019-05-17T14:47:01.304Z,99574.19
2019-05-17T14:52:05.668Z,99578.17
2019-05-17T14:57:10.216Z,99563.70
2019-05-17T15:02:14.642Z,99567.56
2019-05-17T15:07:19.003Z,99565.12
2019-05-17T15:12:28.432Z,99558.89
2019-05-17T15:17:29.439Z,99556.20
2019-05-17T15:22:33.791Z,99559.94
2019-05-17T15:27:38.952Z,99558.52
2019-05-17T15:32:43.379Z,99547.02
2019-05-17T15:37:47.835Z,99541.25
2019-05-17T15:42:52.184Z,99537.06
2019-05-17T15:47:57.005Z,99533.39
2019-05-17T15:53:02.539Z,99534.42
2019-05-17T15:58:06.992Z,99527.91
2019-05-17T16:03:11.473Z,99525.89
2019-05-17T16:08:15.839Z,99531.48
2019-05-17T16:13:20.258Z,99525.17
2019-05-17T16:18:24.885Z,99518.28
2019-05-17T16:23:29.230Z,99514.90
2019-05-17T16:28:33.674Z,99513.08
2019-05-17T16:33:38.126Z,99511.56
2019-05-17T16:38:42.513Z,99500.90
2019-05-17T16:43:46.919Z,99507.44
2019-05-17T16:48:51.340Z,99498.14
2019-05-17T16:53:55.685Z,99503.16
2019-05-17T16:59:00.082Z,99509.47
2019-05-17T17:04:04.740Z,99499.86
2019-05-17T17:09:09.173Z,99499.42
2019-05-17T17:14:13.535Z,99500.62
2019-05-17T17:19:18.015Z,99502.06
2019-05-17T17:24:22.368Z,99498.63
2019-05-17T17:29:26.815Z,99513.44
2019-05-17T17:34:31.151Z,99510.05
2019-05-17T17:39:36.578Z,99519.38
2019-05-17T17:44:40.982Z,99512.61
2019-05-17T17:49:45.334Z,99508.64
2019-05-17T17:54:49.709Z,99497.86
2019-05-17T17:59:55.689Z,99497.86
2019-05-17T18:05:00.385Z,99500.88
2019-05-17T18:10:06.518Z,99505.80
2019-05-17T18:15:12.909Z,99504.91
2019-05-17T18:20:17.283Z,99499.43
2019-05-17T18:25:21.718Z,99503.97
2019-05-17T18:30:41.237Z,99502.16
2019-05-17T18:35:48.638Z,99504.13
2019-05-17T18:40:52.983Z,99509.61
2019-05-17T18:45:57.382Z,99515.30
2019-05-17T18:51:01.885Z,99519.06
2019-05-17T18:56:06.240Z,99522.16
2019-05-17T19:01:11.640Z,99528.52
2019-05-17T19:06:16.013Z,99529.22
2019-05-17T19:11:20.366Z,99529.88
2019-05-17T19:16:24.679Z,99536.28
2019-05-17T19:21:29.232Z,99546.25
2019-05-17T19:26:33.600Z,99546.56
2019-05-17T19:31:37.932Z,99536.50
2019-05-17T19:36:42.281Z,99537.20
2019-05-17T19:41:49.474Z,99538.35
2019-05-17T19:46:53.852Z,99540.52
2019-05-17T19:51:58.223Z,99551.01
2019-05-17T19:57:02.592Z,99549.92
2019-05-17T20:02:06.940Z,99548.47
2019-05-17T20:07:11.340Z,99542.81
2019-05-17T20:12:15.674Z,99546.85
2019-05-17T20:17:20.085Z,99541.06
2019-05-17T20:22:24.532Z,99537.09
2019-05-17T20:27:29.040Z,99543.53
2019-05-17T20:32:33.483Z,99535.34
2019-05-17T20:37:38.425Z,99538.88
2019-05-17T20:42:42.764Z,99533.69
2019-05-17T20:47:50.327Z,99535.41
2019-05-17T20:52:56.342Z,99532.16
2019-05-17T20:58:00.776Z,99533.31
2019-05-17T21:03:05.472Z,99525.17
2019-05-17T21:08:10.037Z,99524.38
2019-05-17T21:13:14.424Z,99519.50
2019-05-17T21:18:18.833Z,99520.36
2019-05-17T21:23:24.291Z,99516.73
2019-05-17T21:28:30.311Z,99522.23
2019-05-17T21:33:34.729Z,99523.30
2019-05-17T21:38:39.059Z,99532.45
2019-05-17T21:43:44.753Z,99532.69
2019-05-17T21:48:49.382Z,99537.14
2019-05-17T21:53:53.738Z,99537.99
2019-05-17T21:58:58.124Z,99534.64
2019-05-17T22:04:02.515Z,99536.58
2019-05-17T22:09:07.787Z,99539.70
2019-05-17T22:14:13.628Z,99541.80
2019-05-17T22:19:17.993Z,99543.09
2019-05-17T22:24:22.381Z,99543.47
2019-05-17T22:29:26.882Z,99535.60
2019-05-17T22:34:31.234Z,99536.45
2019-05-17T22:39:35.612Z,99535.76
2019-05-17T22:44:40.049Z,99532.67
2019-05-17T22:49:44.396Z,99540.11
2019-05-17T22:54:48.776Z,99549.57
2019-05-17T22:59:53.119Z,99551.73
2019-05-17T23:04:57.464Z,99542.19
2019-05-17T23:10:01.899Z,99537.78
2019-05-17T23:15:07.641Z,99542.82
2019-05-17T23:20:12.830Z,99544.84
2019-05-17T23:25:17.211Z,99535.79
2019-05-17T23:30:22.576Z,99539.41
2019-05-17T23:35:27.085Z,99537.64
2019-05-17T23:40:32.308Z,99539.48
2019-05-17T23:45:38.602Z,99530.88
2019-05-17T23:50:43.220Z,99535.58
2019-05-17T23:55:48.600Z,99533.88
